CheckWX is a tool to help pilots better visualize weather data.  It is not intended as a substitute for an official pre-flight weather briefing.

06:13:28 UTC

ESDF METAR
Ronneby Airport
Sweden
Current

23 mins ago

ESDF 220550Z AUTO 10006KT 9999 NCD 07/05 Q1024
Observed
Apr-22 @ 05:50 UTC
Wind
  • 100° at 6 KTS
Visibility
10,000+ meters
Flight Rules
VFR
Cloud Levels
  • Clear skies
Temperature
C / 45°F
Dewpoint
C / 41°F
Humidity
87%
Altimeter
30.24" Hg
Pressure
1023.92 hPa
Previous

53 mins ago

ESDF 220520Z AUTO 09007KT 9999 NCD 06/04 Q1024
Observed
Apr-22 @ 05:20 UTC
Wind
  • 090° at 7 KTS
Visibility
10,000+ meters
Flight Rules
VFR
Cloud Levels
  • Clear skies
Temperature
C / 43°F
Dewpoint
C / 39°F
Humidity
87%
Altimeter
30.24" Hg
Pressure
1023.92 hPa
Previous

1 hour ago

ESDF 220450Z AUTO 05004KT 9999 NCD 03/02 Q1023
Observed
Apr-22 @ 04:50 UTC
Wind
  • 050° at 4 KTS
Visibility
10,000+ meters
Flight Rules
VFR
Cloud Levels
  • Clear skies
Temperature
C / 37°F
Dewpoint
C / 36°F
Humidity
93%
Altimeter
30.21" Hg
Pressure
1022.92 hPa